sensor_id;sensor_type;location;lat;lon;timestamp;temperature;humidity
72468;SHT30;60626;43.582;1.470;2023-02-28T00:00:51;6.33;50.31
72468;SHT30;60626;43.582;1.470;2023-02-28T00:03:18;6.36;50.21
72468;SHT30;60626;43.582;1.470;2023-02-28T00:05:45;6.32;50.29
72468;SHT30;60626;43.582;1.470;2023-02-28T00:08:11;6.29;50.32
72468;SHT30;60626;43.582;1.470;2023-02-28T00:10:39;6.25;50.03
72468;SHT30;60626;43.582;1.470;2023-02-28T00:13:06;6.25;50.17
72468;SHT30;60626;43.582;1.470;2023-02-28T00:15:33;6.18;50.24
72468;SHT30;60626;43.582;1.470;2023-02-28T00:18:00;6.19;50.23
72468;SHT30;60626;43.582;1.470;2023-02-28T00:20:27;6.19;50.19
72468;SHT30;60626;43.582;1.470;2023-02-28T00:22:54;6.25;50.41
72468;SHT30;60626;43.582;1.470;2023-02-28T00:25:23;6.25;50.41
72468;SHT30;60626;43.582;1.470;2023-02-28T00:27:50;6.30;50.27
72468;SHT30;60626;43.582;1.470;2023-02-28T00:30:19;6.33;50.25
72468;SHT30;60626;43.582;1.470;2023-02-28T00:32:46;6.26;50.16
72468;SHT30;60626;43.582;1.470;2023-02-28T00:35:13;6.26;50.23
72468;SHT30;60626;43.582;1.470;2023-02-28T00:37:40;6.28;50.32
72468;SHT30;60626;43.582;1.470;2023-02-28T00:40:07;6.32;50.25
72468;SHT30;60626;43.582;1.470;2023-02-28T00:42:36;6.32;50.28
72468;SHT30;60626;43.582;1.470;2023-02-28T00:45:03;6.26;50.17
72468;SHT30;60626;43.582;1.470;2023-02-28T00:47:34;6.26;50.20
72468;SHT30;60626;43.582;1.470;2023-02-28T00:50:02;6.20;50.24
72468;SHT30;60626;43.582;1.470;2023-02-28T00:52:29;6.19;50.30
72468;SHT30;60626;43.582;1.470;2023-02-28T00:54:55;6.20;50.36
72468;SHT30;60626;43.582;1.470;2023-02-28T00:57:23;6.20;50.35
72468;SHT30;60626;43.582;1.470;2023-02-28T00:59:49;6.15;50.19
72468;SHT30;60626;43.582;1.470;2023-02-28T01:02:16;6.06;50.28
72468;SHT30;60626;43.582;1.470;2023-02-28T01:04:44;6.06;50.48
72468;SHT30;60626;43.582;1.470;2023-02-28T01:07:11;6.11;50.51
72468;SHT30;60626;43.582;1.470;2023-02-28T01:09:37;6.13;50.43
72468;SHT30;60626;43.582;1.470;2023-02-28T01:12:04;6.13;50.47
72468;SHT30;60626;43.582;1.470;2023-02-28T01:14:31;6.13;50.30
72468;SHT30;60626;43.582;1.470;2023-02-28T01:16:57;6.11;50.25
72468;SHT30;60626;43.582;1.470;2023-02-28T01:19:24;6.05;50.36
72468;SHT30;60626;43.582;1.470;2023-02-28T01:21:51;6.01;50.47
72468;SHT30;60626;43.582;1.470;2023-02-28T01:24:17;6.01;50.90
72468;SHT30;60626;43.582;1.470;2023-02-28T01:26:44;6.02;50.92
72468;SHT30;60626;43.582;1.470;2023-02-28T01:29:11;6.05;50.86
72468;SHT30;60626;43.582;1.470;2023-02-28T01:31:37;6.09;50.79
72468;SHT30;60626;43.582;1.470;2023-02-28T01:34:04;6.08;51.08
72468;SHT30;60626;43.582;1.470;2023-02-28T01:36:31;6.15;51.04
72468;SHT30;60626;43.582;1.470;2023-02-28T01:38:57;6.19;50.87
72468;SHT30;60626;43.582;1.470;2023-02-28T01:41:27;6.20;50.58
72468;SHT30;60626;43.582;1.470;2023-02-28T01:44:05;6.12;50.70
72468;SHT30;60626;43.582;1.470;2023-02-28T01:46:35;6.16;50.71
72468;SHT30;60626;43.582;1.470;2023-02-28T01:49:06;6.18;50.68
72468;SHT30;60626;43.582;1.470;2023-02-28T01:51:51;6.15;50.60
72468;SHT30;60626;43.582;1.470;2023-02-28T01:54:25;6.16;50.56
72468;SHT30;60626;43.582;1.470;2023-02-28T01:56:55;6.18;50.58
72468;SHT30;60626;43.582;1.470;2023-02-28T01:59:31;6.09;50.78
72468;SHT30;60626;43.582;1.470;2023-02-28T02:02:00;6.05;50.70
72468;SHT30;60626;43.582;1.470;2023-02-28T02:04:37;6.01;50.78
72468;SHT30;60626;43.582;1.470;2023-02-28T02:07:05;6.05;50.85
72468;SHT30;60626;43.582;1.470;2023-02-28T02:09:32;6.03;50.71
72468;SHT30;60626;43.582;1.470;2023-02-28T02:12:06;5.99;51.30
72468;SHT30;60626;43.582;1.470;2023-02-28T02:15:05;6.05;51.00
72468;SHT30;60626;43.582;1.470;2023-02-28T02:17:40;6.03;50.88
72468;SHT30;60626;43.582;1.470;2023-02-28T02:23:33;6.05;51.29
72468;SHT30;60626;43.582;1.470;2023-02-28T02:28:52;6.09;51.05
72468;SHT30;60626;43.582;1.470;2023-02-28T02:37:38;6.01;50.83
72468;SHT30;60626;43.582;1.470;2023-02-28T02:40:14;5.88;51.01
72468;SHT30;60626;43.582;1.470;2023-02-28T02:45:29;5.77;51.15
72468;SHT30;60626;43.582;1.470;2023-02-28T02:48:05;5.75;51.45
72468;SHT30;60626;43.582;1.470;2023-02-28T02:50:38;5.77;51.54
72468;SHT30;60626;43.582;1.470;2023-02-28T02:53:07;5.82;51.89
72468;SHT30;60626;43.582;1.470;2023-02-28T02:55:40;5.91;51.73
72468;SHT30;60626;43.582;1.470;2023-02-28T02:58:11;5.98;51.53
72468;SHT30;60626;43.582;1.470;2023-02-28T03:00:44;6.06;51.39
72468;SHT30;60626;43.582;1.470;2023-02-28T03:03:13;6.11;51.29
72468;SHT30;60626;43.582;1.470;2023-02-28T03:05:49;6.11;51.38
72468;SHT30;60626;43.582;1.470;2023-02-28T03:08:16;6.16;51.17
72468;SHT30;60626;43.582;1.470;2023-02-28T03:10:45;6.19;51.21
72468;SHT30;60626;43.582;1.470;2023-02-28T03:22:18;6.18;51.26
72468;SHT30;60626;43.582;1.470;2023-02-28T03:27:41;6.25;51.36
72468;SHT30;60626;43.582;1.470;2023-02-28T03:30:24;6.28;51.40
72468;SHT30;60626;43.582;1.470;2023-02-28T03:33:03;6.26;51.29
72468;SHT30;60626;43.582;1.470;2023-02-28T03:35:36;6.26;51.22
72468;SHT30;60626;43.582;1.470;2023-02-28T03:38:28;6.20;51.21
72468;SHT30;60626;43.582;1.470;2023-02-28T03:41:11;6.23;51.43
72468;SHT30;60626;43.582;1.470;2023-02-28T03:43:41;6.23;51.42
72468;SHT30;60626;43.582;1.470;2023-02-28T03:46:12;6.28;51.16
72468;SHT30;60626;43.582;1.470;2023-02-28T03:48:58;6.29;51.17
72468;SHT30;60626;43.582;1.470;2023-02-28T03:51:29;6.25;51.38
72468;SHT30;60626;43.582;1.470;2023-02-28T03:54:01;6.23;51.25
72468;SHT30;60626;43.582;1.470;2023-02-28T03:56:38;6.26;51.32
72468;SHT30;60626;43.582;1.470;2023-02-28T03:59:30;6.29;51.29
72468;SHT30;60626;43.582;1.470;2023-02-28T04:01:59;6.30;51.22
72468;SHT30;60626;43.582;1.470;2023-02-28T04:04:26;6.32;51.15
72468;SHT30;60626;43.582;1.470;2023-02-28T04:07:02;6.29;51.20
72468;SHT30;60626;43.582;1.470;2023-02-28T04:09:29;6.28;51.23
72468;SHT30;60626;43.582;1.470;2023-02-28T04:11:55;6.25;51.15
72468;SHT30;60626;43.582;1.470;2023-02-28T04:14:22;6.19;51.11
72468;SHT30;60626;43.582;1.470;2023-02-28T04:16:49;6.08;51.15
72468;SHT30;60626;43.582;1.470;2023-02-28T04:19:17;5.99;51.36
72468;SHT30;60626;43.582;1.470;2023-02-28T04:21:47;5.98;51.41
72468;SHT30;60626;43.582;1.470;2023-02-28T04:24:20;5.95;51.98
72468;SHT30;60626;43.582;1.470;2023-02-28T04:26:49;5.99;51.53
72468;SHT30;60626;43.582;1.470;2023-02-28T04:29:31;5.95;51.73
72468;SHT30;60626;43.582;1.470;2023-02-28T04:32:01;5.97;51.62
72468;SHT30;60626;43.582;1.470;2023-02-28T04:34:30;5.98;52.02
72468;SHT30;60626;43.582;1.470;2023-02-28T04:36:58;6.01;52.01
72468;SHT30;60626;43.582;1.470;2023-02-28T04:39:38;6.06;51.90
72468;SHT30;60626;43.582;1.470;2023-02-28T04:42:05;6.06;51.77
72468;SHT30;60626;43.582;1.470;2023-02-28T04:44:32;6.08;51.62
72468;SHT30;60626;43.582;1.470;2023-02-28T04:46:59;6.01;51.78
72468;SHT30;60626;43.582;1.470;2023-02-28T04:49:25;5.95;51.77
72468;SHT30;60626;43.582;1.470;2023-02-28T04:51:52;5.94;51.85
72468;SHT30;60626;43.582;1.470;2023-02-28T04:54:19;5.92;52.14
72468;SHT30;60626;43.582;1.470;2023-02-28T04:56:46;5.94;52.16
72468;SHT30;60626;43.582;1.470;2023-02-28T04:59:14;5.95;52.16
72468;SHT30;60626;43.582;1.470;2023-02-28T05:01:45;5.99;52.17
72468;SHT30;60626;43.582;1.470;2023-02-28T05:04:13;5.99;52.20
72468;SHT30;60626;43.582;1.470;2023-02-28T05:06:39;5.95;52.28
72468;SHT30;60626;43.582;1.470;2023-02-28T05:09:06;5.94;52.31
72468;SHT30;60626;43.582;1.470;2023-02-28T05:11:33;5.94;52.11
72468;SHT30;60626;43.582;1.470;2023-02-28T05:14:09;5.88;52.33
72468;SHT30;60626;43.582;1.470;2023-02-28T05:16:36;5.88;52.07
72468;SHT30;60626;43.582;1.470;2023-02-28T05:19:03;5.84;52.62
72468;SHT30;60626;43.582;1.470;2023-02-28T05:21:33;5.78;52.56
72468;SHT30;60626;43.582;1.470;2023-02-28T05:24:05;5.82;52.16
72468;SHT30;60626;43.582;1.470;2023-02-28T05:26:35;5.75;52.60
72468;SHT30;60626;43.582;1.470;2023-02-28T05:29:02;5.75;52.56
72468;SHT30;60626;43.582;1.470;2023-02-28T05:31:29;5.71;52.87
72468;SHT30;60626;43.582;1.470;2023-02-28T05:33:56;5.73;52.56
72468;SHT30;60626;43.582;1.470;2023-02-28T05:36:23;5.67;52.74
72468;SHT30;60626;43.582;1.470;2023-02-28T05:38:50;5.71;52.79
72468;SHT30;60626;43.582;1.470;2023-02-28T05:41:18;5.68;53.17
72468;SHT30;60626;43.582;1.470;2023-02-28T05:43:46;5.71;52.90
72468;SHT30;60626;43.582;1.470;2023-02-28T05:46:13;5.70;52.74
72468;SHT30;60626;43.582;1.470;2023-02-28T05:48:41;5.67;52.66
72468;SHT30;60626;43.582;1.470;2023-02-28T05:51:08;5.61;52.67
72468;SHT30;60626;43.582;1.470;2023-02-28T05:53:35;5.58;52.73
72468;SHT30;60626;43.582;1.470;2023-02-28T05:56:03;5.56;53.17
72468;SHT30;60626;43.582;1.470;2023-02-28T05:58:30;5.54;52.90
72468;SHT30;60626;43.582;1.470;2023-02-28T06:00:58;5.56;52.79
72468;SHT30;60626;43.582;1.470;2023-02-28T06:03:26;5.51;53.17
72468;SHT30;60626;43.582;1.470;2023-02-28T06:05:53;5.50;53.48
72468;SHT30;60626;43.582;1.470;2023-02-28T06:08:20;5.53;53.38
72468;SHT30;60626;43.582;1.470;2023-02-28T06:10:47;5.48;53.17
72468;SHT30;60626;43.582;1.470;2023-02-28T06:13:13;5.48;53.10
72468;SHT30;60626;43.582;1.470;2023-02-28T06:15:40;5.46;53.39
72468;SHT30;60626;43.582;1.470;2023-02-28T06:18:07;5.47;53.20
72468;SHT30;60626;43.582;1.470;2023-02-28T06:20:34;5.43;53.83
72468;SHT30;60626;43.582;1.470;2023-02-28T06:23:02;5.44;53.57
72468;SHT30;60626;43.582;1.470;2023-02-28T06:25:29;5.46;53.72
72468;SHT30;60626;43.582;1.470;2023-02-28T06:27:56;5.53;53.10
72468;SHT30;60626;43.582;1.470;2023-02-28T06:30:23;5.50;53.40
72468;SHT30;60626;43.582;1.470;2023-02-28T06:32:54;5.53;53.40
72468;SHT30;60626;43.582;1.470;2023-02-28T06:35:21;5.54;53.65
72468;SHT30;60626;43.582;1.470;2023-02-28T06:37:48;5.56;53.69
72468;SHT30;60626;43.582;1.470;2023-02-28T06:40:15;5.61;53.26
72468;SHT30;60626;43.582;1.470;2023-02-28T06:42:42;5.64;53.17
72468;SHT30;60626;43.582;1.470;2023-02-28T06:45:09;5.65;53.26
72468;SHT30;60626;43.582;1.470;2023-02-28T06:47:40;5.65;53.35
72468;SHT30;60626;43.582;1.470;2023-02-28T06:50:10;5.67;53.34
72468;SHT30;60626;43.582;1.470;2023-02-28T06:52:37;5.73;53.08
72468;SHT30;60626;43.582;1.470;2023-02-28T06:55:06;5.74;53.54
72468;SHT30;60626;43.582;1.470;2023-02-28T06:57:34;5.77;53.08
72468;SHT30;60626;43.582;1.470;2023-02-28T07:00:05;5.81;53.21
72468;SHT30;60626;43.582;1.470;2023-02-28T07:02:35;5.85;53.31
72468;SHT30;60626;43.582;1.470;2023-02-28T07:05:02;5.88;52.98
72468;SHT30;60626;43.582;1.470;2023-02-28T07:07:29;5.88;53.05
72468;SHT30;60626;43.582;1.470;2023-02-28T07:09:55;5.91;52.71
72468;SHT30;60626;43.582;1.470;2023-02-28T07:12:22;5.88;52.80
72468;SHT30;60626;43.582;1.470;2023-02-28T07:14:49;5.85;52.96
72468;SHT30;60626;43.582;1.470;2023-02-28T07:17:16;5.91;52.85
72468;SHT30;60626;43.582;1.470;2023-02-28T07:19:43;5.97;52.55
72468;SHT30;60626;43.582;1.470;2023-02-28T07:22:09;5.97;52.57
72468;SHT30;60626;43.582;1.470;2023-02-28T07:24:36;5.98;52.90
72468;SHT30;60626;43.582;1.470;2023-02-28T07:27:02;6.03;52.66
72468;SHT30;60626;43.582;1.470;2023-02-28T07:29:29;6.06;52.63
72468;SHT30;60626;43.582;1.470;2023-02-28T07:31:56;6.08;52.69
72468;SHT30;60626;43.582;1.470;2023-02-28T07:34:23;6.12;52.57
72468;SHT30;60626;43.582;1.470;2023-02-28T07:36:53;6.22;52.32
72468;SHT30;60626;43.582;1.470;2023-02-28T07:39:21;6.18;52.51
72468;SHT30;60626;43.582;1.470;2023-02-28T07:41:48;6.29;52.63
72468;SHT30;60626;43.582;1.470;2023-02-28T07:44:15;6.40;52.39
72468;SHT30;60626;43.582;1.470;2023-02-28T07:46:42;6.54;52.02
72468;SHT30;60626;43.582;1.470;2023-02-28T07:49:09;6.61;51.79
72468;SHT30;60626;43.582;1.470;2023-02-28T07:51:35;6.71;51.79
72468;SHT30;60626;43.582;1.470;2023-02-28T07:54:02;6.80;51.63
72468;SHT30;60626;43.582;1.470;2023-02-28T07:56:29;6.89;51.06
72468;SHT30;60626;43.582;1.470;2023-02-28T07:58:57;6.99;51.28
72468;SHT30;60626;43.582;1.470;2023-02-28T08:01:23;6.99;51.25
72468;SHT30;60626;43.582;1.470;2023-02-28T08:03:50;7.02;51.24
72468;SHT30;60626;43.582;1.470;2023-02-28T08:06:20;7.13;51.06
72468;SHT30;60626;43.582;1.470;2023-02-28T08:08:47;7.13;50.67
72468;SHT30;60626;43.582;1.470;2023-02-28T08:11:14;7.16;50.64
72468;SHT30;60626;43.582;1.470;2023-02-28T08:13:43;7.11;50.62
72468;SHT30;60626;43.582;1.470;2023-02-28T08:16:11;7.12;50.66
72468;SHT30;60626;43.582;1.470;2023-02-28T08:18:38;7.12;50.52
72468;SHT30;60626;43.582;1.470;2023-02-28T08:21:07;7.12;50.39
72468;SHT30;60626;43.582;1.470;2023-02-28T08:23:33;7.08;50.57
72468;SHT30;60626;43.582;1.470;2023-02-28T08:26:00;7.15;50.49
72468;SHT30;60626;43.582;1.470;2023-02-28T08:28:26;7.18;50.41
72468;SHT30;60626;43.582;1.470;2023-02-28T08:30:54;7.32;50.21
72468;SHT30;60626;43.582;1.470;2023-02-28T08:33:21;7.43;49.91
72468;SHT30;60626;43.582;1.470;2023-02-28T08:35:52;7.51;50.34
72468;SHT30;60626;43.582;1.470;2023-02-28T08:38:20;7.49;49.73
72468;SHT30;60626;43.582;1.470;2023-02-28T08:40:47;7.56;50.11
72468;SHT30;60626;43.582;1.470;2023-02-28T08:43:13;7.59;49.78
72468;SHT30;60626;43.582;1.470;2023-02-28T08:45:40;7.66;49.51
72468;SHT30;60626;43.582;1.470;2023-02-28T08:48:07;7.78;49.97
72468;SHT30;60626;43.582;1.470;2023-02-28T08:50:33;7.85;49.37
72468;SHT30;60626;43.582;1.470;2023-02-28T08:53:00;8.01;49.26
72468;SHT30;60626;43.582;1.470;2023-02-28T08:55:26;8.09;48.54
72468;SHT30;60626;43.582;1.470;2023-02-28T08:57:53;8.19;48.09
72468;SHT30;60626;43.582;1.470;2023-02-28T09:00:21;8.25;47.90
72468;SHT30;60626;43.582;1.470;2023-02-28T09:02:48;8.33;47.42
72468;SHT30;60626;43.582;1.470;2023-02-28T09:05:15;8.39;47.62
72468;SHT30;60626;43.582;1.470;2023-02-28T09:07:42;8.47;47.95
72468;SHT30;60626;43.582;1.470;2023-02-28T09:10:09;8.39;47.45
72468;SHT30;60626;43.582;1.470;2023-02-28T09:12:37;8.30;47.79
72468;SHT30;60626;43.582;1.470;2023-02-28T09:15:04;8.25;47.48
72468;SHT30;60626;43.582;1.470;2023-02-28T09:17:31;8.15;47.26
72468;SHT30;60626;43.582;1.470;2023-02-28T09:19:58;8.05;47.12
72468;SHT30;60626;43.582;1.470;2023-02-28T09:22:25;8.09;47.26
72468;SHT30;60626;43.582;1.470;2023-02-28T09:24:51;8.19;47.31
72468;SHT30;60626;43.582;1.470;2023-02-28T09:27:18;8.24;47.57
72468;SHT30;60626;43.582;1.470;2023-02-28T09:29:45;8.30;48.12
72468;SHT30;60626;43.582;1.470;2023-02-28T09:32:11;8.59;48.16
72468;SHT30;60626;43.582;1.470;2023-02-28T09:34:38;8.95;47.24
72468;SHT30;60626;43.582;1.470;2023-02-28T09:37:05;9.25;46.93
72468;SHT30;60626;43.582;1.470;2023-02-28T09:39:32;9.58;46.79
72468;SHT30;60626;43.582;1.470;2023-02-28T09:41:58;9.83;46.23
72468;SHT30;60626;43.582;1.470;2023-02-28T09:44:30;9.99;45.33
72468;SHT30;60626;43.582;1.470;2023-02-28T09:47:01;10.16;44.64
72468;SHT30;60626;43.582;1.470;2023-02-28T09:49:41;10.16;44.84
72468;SHT30;60626;43.582;1.470;2023-02-28T09:52:15;9.95;43.20
72468;SHT30;60626;43.582;1.470;2023-02-28T09:54:43;9.80;44.87
72468;SHT30;60626;43.582;1.470;2023-02-28T09:57:24;9.57;44.60
72468;SHT30;60626;43.582;1.470;2023-02-28T09:59:54;9.38;44.91
72468;SHT30;60626;43.582;1.470;2023-02-28T10:02:46;9.35;44.97
72468;SHT30;60626;43.582;1.470;2023-02-28T10:05:20;9.40;45.06
72468;SHT30;60626;43.582;1.470;2023-02-28T10:10:39;9.80;44.25
72468;SHT30;60626;43.582;1.470;2023-02-28T10:13:36;9.83;44.39
72468;SHT30;60626;43.582;1.470;2023-02-28T10:16:20;9.75;44.32
72468;SHT30;60626;43.582;1.470;2023-02-28T10:19:18;9.74;44.07
72468;SHT30;60626;43.582;1.470;2023-02-28T10:22:00;9.78;43.81
72468;SHT30;60626;43.582;1.470;2023-02-28T10:24:32;9.73;44.90
72468;SHT30;60626;43.582;1.470;2023-02-28T10:27:09;9.56;44.36
72468;SHT30;60626;43.582;1.470;2023-02-28T10:29:42;9.46;44.43
72468;SHT30;60626;43.582;1.470;2023-02-28T10:32:13;9.30;44.57
72468;SHT30;60626;43.582;1.470;2023-02-28T10:34:41;9.18;44.34
72468;SHT30;60626;43.582;1.470;2023-02-28T10:37:07;9.19;44.65
72468;SHT30;60626;43.582;1.470;2023-02-28T10:42:19;9.14;44.82
72468;SHT30;60626;43.582;1.470;2023-02-28T10:44:46;9.12;45.07
72468;SHT30;60626;43.582;1.470;2023-02-28T10:47:19;9.12;45.19
72468;SHT30;60626;43.582;1.470;2023-02-28T10:49:50;9.07;44.94
72468;SHT30;60626;43.582;1.470;2023-02-28T10:52:39;9.07;45.04
72468;SHT30;60626;43.582;1.470;2023-02-28T10:55:24;9.02;45.15
72468;SHT30;60626;43.582;1.470;2023-02-28T10:57:52;8.93;44.44
72468;SHT30;60626;43.582;1.470;2023-02-28T11:00:24;8.91;44.70
72468;SHT30;60626;43.582;1.470;2023-02-28T11:02:54;8.81;44.71
72468;SHT30;60626;43.582;1.470;2023-02-28T11:05:27;8.75;44.55
72468;SHT30;60626;43.582;1.470;2023-02-28T11:07:58;8.73;44.59
72468;SHT30;60626;43.582;1.470;2023-02-28T11:10:29;8.67;44.85
72468;SHT30;60626;43.582;1.470;2023-02-28T11:12:57;8.73;44.81
72468;SHT30;60626;43.582;1.470;2023-02-28T11:15:33;8.81;44.95
72468;SHT30;60626;43.582;1.470;2023-02-28T11:20:39;8.61;45.00
72468;SHT30;60626;43.582;1.470;2023-02-28T11:23:12;8.61;45.26
72468;SHT30;60626;43.582;1.470;2023-02-28T11:25:47;8.67;45.42
72468;SHT30;60626;43.582;1.470;2023-02-28T11:28:34;8.64;45.36
72468;SHT30;60626;43.582;1.470;2023-02-28T11:33:41;8.80;45.71
72468;SHT30;60626;43.582;1.470;2023-02-28T11:36:12;8.87;45.71
72468;SHT30;60626;43.582;1.470;2023-02-28T11:38:40;8.85;44.97
72468;SHT30;60626;43.582;1.470;2023-02-28T11:43:51;8.85;45.32
72468;SHT30;60626;43.582;1.470;2023-02-28T11:52:00;9.02;44.47
72468;SHT30;60626;43.582;1.470;2023-02-28T11:57:33;9.14;44.43
72468;SHT30;60626;43.582;1.470;2023-02-28T12:03:03;9.33;44.47
72468;SHT30;60626;43.582;1.470;2023-02-28T12:06:06;9.53;44.29
72468;SHT30;60626;43.582;1.470;2023-02-28T12:08:44;9.71;43.53
72468;SHT30;60626;43.582;1.470;2023-02-28T12:17:08;9.99;42.56
72468;SHT30;60626;43.582;1.470;2023-02-28T12:22:30;10.32;42.34
72468;SHT30;60626;43.582;1.470;2023-02-28T12:27:29;10.50;41.69
72468;SHT30;60626;43.582;1.470;2023-02-28T12:30:03;10.39;40.98
72468;SHT30;60626;43.582;1.470;2023-02-28T12:32:36;10.31;41.60
72468;SHT30;60626;43.582;1.470;2023-02-28T12:35:12;10.21;41.35
72468;SHT30;60626;43.582;1.470;2023-02-28T12:40:50;9.97;40.64
72468;SHT30;60626;43.582;1.470;2023-02-28T12:43:20;9.97;41.30
72468;SHT30;60626;43.582;1.470;2023-02-28T12:45:55;9.90;41.37
72468;SHT30;60626;43.582;1.470;2023-02-28T12:48:43;9.75;40.65
72468;SHT30;60626;43.582;1.470;2023-02-28T12:51:12;9.71;40.35
72468;SHT30;60626;43.582;1.470;2023-02-28T12:59:03;9.91;40.95
72468;SHT30;60626;43.582;1.470;2023-02-28T13:01:42;9.84;40.85
72468;SHT30;60626;43.582;1.470;2023-02-28T13:04:36;9.69;40.63
72468;SHT30;60626;43.582;1.470;2023-02-28T13:09:57;9.61;41.17
72468;SHT30;60626;43.582;1.470;2023-02-28T13:12:25;9.60;41.18
72468;SHT30;60626;43.582;1.470;2023-02-28T13:15:20;9.67;41.08
72468;SHT30;60626;43.582;1.470;2023-02-28T13:17:52;9.64;40.53
72468;SHT30;60626;43.582;1.470;2023-02-28T13:20:27;9.56;40.50
72468;SHT30;60626;43.582;1.470;2023-02-28T13:22:56;9.53;39.85
72468;SHT30;60626;43.582;1.470;2023-02-28T13:28:09;9.46;40.02
72468;SHT30;60626;43.582;1.470;2023-02-28T13:33:34;9.35;40.23
72468;SHT30;60626;43.582;1.470;2023-02-28T13:38:39;9.33;39.92
72468;SHT30;60626;43.582;1.470;2023-02-28T13:46:29;9.51;39.41
72468;SHT30;60626;43.582;1.470;2023-02-28T13:48:56;9.63;39.39
72468;SHT30;60626;43.582;1.470;2023-02-28T13:51:44;9.73;40.01
72468;SHT30;60626;43.582;1.470;2023-02-28T14:05:21;9.88;38.65
72468;SHT30;60626;43.582;1.470;2023-02-28T14:07:54;9.91;37.31
72468;SHT30;60626;43.582;1.470;2023-02-28T14:10:31;9.88;37.83
72468;SHT30;60626;43.582;1.470;2023-02-28T14:13:03;9.93;38.65
72468;SHT30;60626;43.582;1.470;2023-02-28T14:18:01;9.91;37.89
72468;SHT30;60626;43.582;1.470;2023-02-28T14:20:31;9.88;38.18
72468;SHT30;60626;43.582;1.470;2023-02-28T14:31:32;9.78;38.18
72468;SHT30;60626;43.582;1.470;2023-02-28T14:34:36;9.84;38.25
72468;SHT30;60626;43.582;1.470;2023-02-28T14:37:04;9.90;39.22
72468;SHT30;60626;43.582;1.470;2023-02-28T14:39:31;9.85;39.07
72468;SHT30;60626;43.582;1.470;2023-02-28T14:41:59;9.78;38.64
72468;SHT30;60626;43.582;1.470;2023-02-28T14:44:31;9.70;38.67
72468;SHT30;60626;43.582;1.470;2023-02-28T14:47:02;9.70;38.29
72468;SHT30;60626;43.582;1.470;2023-02-28T14:49:36;9.71;38.27
72468;SHT30;60626;43.582;1.470;2023-02-28T14:52:15;9.71;37.73
72468;SHT30;60626;43.582;1.470;2023-02-28T14:54:43;9.64;38.06
72468;SHT30;60626;43.582;1.470;2023-02-28T15:02:34;9.80;38.00
72468;SHT30;60626;43.582;1.470;2023-02-28T15:07:45;9.85;37.45
72468;SHT30;60626;43.582;1.470;2023-02-28T15:10:26;9.85;37.42
72468;SHT30;60626;43.582;1.470;2023-02-28T15:12:58;9.80;37.01
72468;SHT30;60626;43.582;1.470;2023-02-28T15:19:00;9.74;37.10
72468;SHT30;60626;43.582;1.470;2023-02-28T15:21:40;9.73;37.23
72468;SHT30;60626;43.582;1.470;2023-02-28T15:24:17;9.75;38.16
72468;SHT30;60626;43.582;1.470;2023-02-28T15:26:57;9.71;37.34
72468;SHT30;60626;43.582;1.470;2023-02-28T15:29:27;9.71;37.67
72468;SHT30;60626;43.582;1.470;2023-02-28T15:32:03;9.71;37.50
72468;SHT30;60626;43.582;1.470;2023-02-28T15:34:41;9.73;37.04
72468;SHT30;60626;43.582;1.470;2023-02-28T15:42:38;9.78;36.99
72468;SHT30;60626;43.582;1.470;2023-02-28T15:45:05;9.83;36.97
72468;SHT30;60626;43.582;1.470;2023-02-28T15:47:52;9.84;38.48
72468;SHT30;60626;43.582;1.470;2023-02-28T15:50:21;9.80;36.68
72468;SHT30;60626;43.582;1.470;2023-02-28T15:52:48;9.80;38.31
72468;SHT30;60626;43.582;1.470;2023-02-28T15:55:27;9.74;36.51
72468;SHT30;60626;43.582;1.470;2023-02-28T15:57:57;9.75;36.52
72468;SHT30;60626;43.582;1.470;2023-02-28T16:00:28;9.78;36.75
72468;SHT30;60626;43.582;1.470;2023-02-28T16:02:55;9.78;37.09
72468;SHT30;60626;43.582;1.470;2023-02-28T16:05:29;9.80;36.79
72468;SHT30;60626;43.582;1.470;2023-02-28T16:08:01;9.77;36.90
72468;SHT30;60626;43.582;1.470;2023-02-28T16:10:29;9.78;36.57
72468;SHT30;60626;43.582;1.470;2023-02-28T16:12:56;9.78;36.49
72468;SHT30;60626;43.582;1.470;2023-02-28T16:15:27;9.73;36.99
72468;SHT30;60626;43.582;1.470;2023-02-28T16:17:56;9.75;36.99
72468;SHT30;60626;43.582;1.470;2023-02-28T16:20:26;9.74;36.92
72468;SHT30;60626;43.582;1.470;2023-02-28T16:22:53;9.70;36.59
72468;SHT30;60626;43.582;1.470;2023-02-28T16:25:29;9.70;36.52
72468;SHT30;60626;43.582;1.470;2023-02-28T16:27:59;9.66;36.74
72468;SHT30;60626;43.582;1.470;2023-02-28T16:30:28;9.61;36.97
72468;SHT30;60626;43.582;1.470;2023-02-28T16:32:58;9.56;37.18
72468;SHT30;60626;43.582;1.470;2023-02-28T16:35:25;9.51;36.96
72468;SHT30;60626;43.582;1.470;2023-02-28T16:37:53;9.51;36.95
72468;SHT30;60626;43.582;1.470;2023-02-28T16:40:22;9.50;37.13
72468;SHT30;60626;43.582;1.470;2023-02-28T16:42:51;9.49;36.96
72468;SHT30;60626;43.582;1.470;2023-02-28T16:45:24;9.47;37.12
72468;SHT30;60626;43.582;1.470;2023-02-28T16:47:52;9.44;37.22
72468;SHT30;60626;43.582;1.470;2023-02-28T16:50:20;9.44;36.98
72468;SHT30;60626;43.582;1.470;2023-02-28T16:52:47;9.42;37.25
72468;SHT30;60626;43.582;1.470;2023-02-28T16:55:14;9.40;37.94
72468;SHT30;60626;43.582;1.470;2023-02-28T16:57:41;9.35;37.18
72468;SHT30;60626;43.582;1.470;2023-02-28T17:00:12;9.35;36.94
72468;SHT30;60626;43.582;1.470;2023-02-28T17:02:39;9.33;37.08
72468;SHT30;60626;43.582;1.470;2023-02-28T17:05:11;9.33;38.18
72468;SHT30;60626;43.582;1.470;2023-02-28T17:07:38;9.32;37.47
72468;SHT30;60626;43.582;1.470;2023-02-28T17:10:25;9.30;37.52
72468;SHT30;60626;43.582;1.470;2023-02-28T17:12:52;9.32;37.57
72468;SHT30;60626;43.582;1.470;2023-02-28T17:15:28;9.29;37.96
72468;SHT30;60626;43.582;1.470;2023-02-28T17:17:56;9.28;37.64
72468;SHT30;60626;43.582;1.470;2023-02-28T17:20:22;9.25;38.09
72468;SHT30;60626;43.582;1.470;2023-02-28T17:22:50;9.25;37.82
72468;SHT30;60626;43.582;1.470;2023-02-28T17:25:16;9.23;37.98
72468;SHT30;60626;43.582;1.470;2023-02-28T17:27:43;9.23;37.90
72468;SHT30;60626;43.582;1.470;2023-02-28T17:30:19;9.19;37.90
72468;SHT30;60626;43.582;1.470;2023-02-28T17:32:46;9.18;38.25
72468;SHT30;60626;43.582;1.470;2023-02-28T17:35:13;9.16;37.77
72468;SHT30;60626;43.582;1.470;2023-02-28T17:37:41;9.18;37.93
72468;SHT30;60626;43.582;1.470;2023-02-28T17:40:16;9.16;37.73
72468;SHT30;60626;43.582;1.470;2023-02-28T17:42:44;9.14;37.70
72468;SHT30;60626;43.582;1.470;2023-02-28T17:45:12;9.15;37.69
72468;SHT30;60626;43.582;1.470;2023-02-28T17:47:39;9.14;37.86
72468;SHT30;60626;43.582;1.470;2023-02-28T17:50:12;9.11;37.92
72468;SHT30;60626;43.582;1.470;2023-02-28T17:52:40;9.11;38.07
72468;SHT30;60626;43.582;1.470;2023-02-28T17:55:08;9.12;37.80
72468;SHT30;60626;43.582;1.470;2023-02-28T17:57:35;9.12;37.66
72468;SHT30;60626;43.582;1.470;2023-02-28T18:00:02;9.11;38.00
72468;SHT30;60626;43.582;1.470;2023-02-28T18:02:32;9.11;37.71
72468;SHT30;60626;43.582;1.470;2023-02-28T18:04:59;9.11;37.79
72468;SHT30;60626;43.582;1.470;2023-02-28T18:07:26;9.08;37.73
72468;SHT30;60626;43.582;1.470;2023-02-28T18:09:53;9.08;37.89
72468;SHT30;60626;43.582;1.470;2023-02-28T18:12:19;9.09;37.69